createdAt,value
2023-03-03T00:00:55.875Z,25.50
2023-03-03T00:03:24.736Z,22.33
2023-03-03T00:05:52.547Z,21.30
2023-03-03T00:08:20.614Z,27.65
2023-03-03T00:10:47.610Z,21.05
2023-03-03T00:13:20.082Z,26.73
2023-03-03T00:15:47.420Z,24.08
2023-03-03T00:18:35.269Z,24.50
2023-03-03T00:21:03.905Z,21.73
2023-03-03T00:23:30.724Z,23.52
2023-03-03T00:25:58.246Z,23.85
2023-03-03T00:28:40.969Z,24.15
2023-03-03T00:31:17.213Z,24.17
2023-03-03T00:33:50.584Z,26.02
2023-03-03T00:36:21.269Z,24.45
2023-03-03T00:38:49.253Z,22.77
2023-03-03T00:41:37.426Z,25.67
2023-03-03T00:44:23.993Z,24.63
2023-03-03T00:46:50.676Z,26.38
2023-03-03T00:49:26.496Z,23.33
2023-03-03T00:51:54.313Z,26.50
2023-03-03T00:54:21.088Z,24.05
2023-03-03T00:56:47.714Z,25.92
2023-03-03T00:59:14.690Z,30.40
2023-03-03T01:01:41.388Z,27.25
2023-03-03T01:04:08.621Z,29.33
2023-03-03T01:06:35.768Z,32.60
2023-03-03T01:09:02.534Z,34.35
2023-03-03T01:11:29.372Z,27.67
2023-03-03T01:13:56.716Z,27.20
2023-03-03T01:16:23.448Z,26.83
2023-03-03T01:18:50.670Z,29.10
2023-03-03T01:21:17.383Z,34.70
2023-03-03T01:23:44.092Z,30.83
2023-03-03T01:26:10.946Z,32.83
2023-03-03T01:28:38.892Z,48.75
2023-03-03T01:31:06.285Z,54.22
2023-03-03T01:33:35.331Z,46.50
2023-03-03T01:36:02.724Z,50.25
2023-03-03T01:38:29.762Z,52.97
2023-03-03T01:40:59.384Z,64.18
2023-03-03T01:43:31.113Z,51.22
2023-03-03T01:45:57.859Z,48.03
2023-03-03T01:48:36.519Z,52.83
2023-03-03T01:51:17.442Z,52.10
2023-03-03T01:53:51.503Z,63.00
2023-03-03T01:56:18.554Z,54.58
2023-03-03T01:59:01.388Z,55.45
2023-03-03T02:01:29.795Z,55.00
2023-03-03T02:03:59.086Z,59.83
2023-03-03T02:06:32.226Z,56.80
2023-03-03T02:09:09.663Z,52.75
2023-03-03T02:11:40.342Z,60.08
2023-03-03T02:14:07.150Z,57.30
2023-03-03T02:16:34.020Z,72.85
2023-03-03T02:19:00.886Z,71.55
2023-03-03T02:21:29.390Z,72.97
2023-03-03T02:24:03.285Z,88.18
2023-03-03T02:26:35.700Z,82.20
2023-03-03T02:29:07.123Z,85.05
2023-03-03T02:31:34.002Z,79.00
2023-03-03T02:34:01.207Z,87.28
2023-03-03T02:36:32.722Z,74.93
2023-03-03T02:39:08.904Z,66.72
2023-03-03T02:41:54.056Z,74.85
2023-03-03T02:44:24.919Z,70.82
2023-03-03T02:46:52.893Z,74.63
2023-03-03T02:49:23.372Z,72.53
2023-03-03T02:51:50.909Z,77.68
2023-03-03T02:54:20.589Z,71.32
2023-03-03T02:56:47.490Z,72.53
2023-03-03T02:59:14.784Z,71.70
2023-03-03T03:01:46.985Z,86.18
2023-03-03T03:04:19.603Z,77.32
2023-03-03T03:06:49.820Z,68.10
2023-03-03T03:09:19.161Z,67.18
2023-03-03T03:11:47.520Z,67.07
2023-03-03T03:14:16.903Z,65.07
2023-03-03T03:16:44.215Z,76.43
2023-03-03T03:19:11.100Z,66.38
2023-03-03T03:21:38.826Z,67.22
2023-03-03T03:24:07.418Z,69.63
2023-03-03T03:26:36.949Z,84.88
2023-03-03T03:29:03.684Z,77.15
2023-03-03T03:31:31.217Z,69.07
2023-03-03T03:33:58.000Z,81.22
2023-03-03T03:36:24.848Z,69.50
2023-03-03T03:38:52.395Z,71.22
2023-03-03T03:41:19.189Z,75.80
2023-03-03T03:43:46.270Z,72.25
2023-03-03T03:46:14.584Z,73.85
2023-03-03T03:48:41.350Z,76.35
2023-03-03T03:51:12.208Z,76.03
2023-03-03T03:53:39.945Z,72.35
2023-03-03T03:56:07.080Z,73.30
2023-03-03T03:58:33.902Z,78.97
2023-03-03T04:01:06.436Z,86.55
2023-03-03T04:03:35.949Z,81.32
2023-03-03T04:06:06.184Z,78.20
2023-03-03T04:08:33.975Z,77.63
2023-03-03T04:11:01.474Z,67.43
2023-03-03T04:13:31.816Z,69.05
2023-03-03T04:15:59.631Z,70.60
2023-03-03T04:18:26.747Z,70.22
2023-03-03T04:20:54.633Z,74.97
2023-03-03T04:23:21.791Z,68.40
2023-03-03T04:25:49.751Z,73.22
2023-03-03T04:28:17.980Z,65.80
2023-03-03T04:30:45.772Z,73.13
2023-03-03T04:33:14.998Z,70.97
2023-03-03T04:35:41.728Z,68.93
2023-03-03T04:38:08.460Z,79.47
2023-03-03T04:40:36.166Z,71.65
2023-03-03T04:43:04.190Z,81.10
2023-03-03T04:45:31.181Z,77.47
2023-03-03T04:47:58.276Z,80.38
2023-03-03T04:50:25.103Z,81.65
2023-03-03T04:52:53.524Z,89.13
2023-03-03T04:55:20.259Z,80.88
2023-03-03T04:57:48.118Z,89.68
2023-03-03T05:00:15.166Z,88.05
2023-03-03T05:02:42.100Z,94.03
2023-03-03T05:05:10.615Z,92.72
2023-03-03T05:07:37.313Z,103.90
2023-03-03T05:10:04.227Z,96.60
2023-03-03T05:12:30.904Z,95.80
2023-03-03T05:14:57.567Z,100.15
2023-03-03T05:17:24.209Z,97.20
2023-03-03T05:19:50.954Z,91.57
2023-03-03T05:22:18.195Z,90.30
2023-03-03T05:24:48.914Z,89.47
2023-03-03T05:27:16.659Z,81.95
2023-03-03T05:29:43.441Z,86.82
2023-03-03T05:32:10.208Z,99.70
2023-03-03T05:34:37.790Z,90.43
2023-03-03T05:37:06.625Z,98.32
2023-03-03T05:39:34.634Z,93.70
2023-03-03T05:42:01.840Z,75.05
2023-03-03T05:44:28.671Z,83.55
2023-03-03T05:46:57.606Z,81.07
2023-03-03T05:49:24.954Z,87.88
2023-03-03T05:51:51.821Z,77.22
2023-03-03T05:54:18.516Z,88.05
2023-03-03T05:56:45.312Z,87.10
2023-03-03T05:59:12.009Z,75.22
2023-03-03T06:01:38.809Z,82.75
2023-03-03T06:04:05.511Z,85.25
2023-03-03T06:06:32.353Z,91.70
2023-03-03T06:08:59.006Z,84.82
2023-03-03T06:11:25.673Z,74.93
2023-03-03T06:13:52.319Z,72.88
2023-03-03T06:16:19.401Z,79.85
2023-03-03T06:18:46.227Z,75.10
2023-03-03T06:21:12.885Z,75.70
2023-03-03T06:23:39.559Z,78.80
2023-03-03T06:26:06.299Z,82.15
2023-03-03T06:28:32.969Z,84.10
2023-03-03T06:30:59.694Z,77.72
2023-03-03T06:33:26.398Z,73.40
2023-03-03T06:35:54.636Z,65.90
2023-03-03T06:38:21.795Z,75.10
2023-03-03T06:40:48.490Z,75.82
2023-03-03T06:43:15.179Z,72.28
2023-03-03T06:45:43.165Z,70.75
2023-03-03T06:48:09.818Z,74.32
2023-03-03T06:50:36.715Z,101.43
2023-03-03T06:53:12.621Z,74.63
2023-03-03T06:55:39.829Z,82.47
2023-03-03T06:58:18.400Z,74.43
2023-03-03T07:00:52.636Z,67.82
2023-03-03T07:03:29.395Z,74.82
2023-03-03T07:05:56.247Z,63.28
2023-03-03T07:08:24.997Z,69.85
2023-03-03T07:10:52.688Z,68.68
2023-03-03T07:13:28.291Z,64.30
2023-03-03T07:15:58.919Z,78.47
2023-03-03T07:18:50.927Z,74.20
2023-03-03T07:21:21.986Z,74.63
2023-03-03T07:23:50.572Z,71.97
2023-03-03T07:26:22.837Z,72.78
2023-03-03T07:29:01.216Z,64.20
2023-03-03T07:31:40.852Z,64.38
2023-03-03T07:34:21.735Z,72.28
2023-03-03T07:36:55.680Z,60.60
2023-03-03T07:39:31.121Z,72.90
2023-03-03T07:42:19.285Z,53.25
2023-03-03T07:44:52.299Z,59.50
2023-03-03T07:47:25.924Z,55.78
2023-03-03T07:49:55.894Z,65.40
2023-03-03T07:52:38.247Z,67.32
2023-03-03T07:57:52.802Z,78.10
2023-03-03T08:00:28.557Z,71.97
2023-03-03T08:02:59.886Z,72.75
2023-03-03T08:05:36.148Z,74.68
2023-03-03T08:08:21.758Z,81.72
2023-03-03T08:10:50.126Z,71.45
2023-03-03T08:13:20.248Z,73.38
2023-03-03T08:15:50.472Z,83.53
2023-03-03T08:18:32.954Z,81.47
2023-03-03T08:21:07.435Z,72.38
2023-03-03T08:23:34.138Z,74.32
2023-03-03T08:26:00.760Z,73.63
2023-03-03T08:28:27.499Z,82.10
2023-03-03T08:31:05.533Z,68.53
2023-03-03T08:33:35.794Z,87.57
2023-03-03T08:36:03.032Z,66.13
2023-03-03T08:38:29.709Z,68.47
2023-03-03T08:40:56.394Z,77.28
2023-03-03T08:43:24.595Z,61.40
2023-03-03T08:45:53.634Z,79.30
2023-03-03T08:48:21.232Z,74.88
2023-03-03T08:50:48.107Z,67.00
2023-03-03T08:53:15.318Z,73.45
2023-03-03T08:55:43.052Z,63.10
2023-03-03T08:58:09.826Z,73.47
2023-03-03T09:00:36.913Z,72.82
2023-03-03T09:03:03.787Z,71.22
2023-03-03T09:05:31.419Z,85.43
2023-03-03T09:07:58.208Z,67.68
2023-03-03T09:10:30.653Z,76.68
2023-03-03T09:13:01.370Z,78.20
2023-03-03T09:15:37.282Z,75.68
2023-03-03T09:18:16.579Z,76.65
2023-03-03T09:20:51.438Z,69.88
2023-03-03T09:23:23.950Z,76.95
2023-03-03T09:25:51.507Z,60.78
2023-03-03T09:28:30.279Z,69.80
2023-03-03T09:30:59.924Z,66.25
2023-03-03T09:33:42.949Z,65.07
2023-03-03T09:36:27.924Z,73.28
2023-03-03T09:38:56.773Z,72.90
2023-03-03T09:41:43.206Z,84.65
2023-03-03T09:44:45.734Z,71.88
2023-03-03T09:47:31.411Z,70.20
2023-03-03T09:50:18.577Z,76.40
2023-03-03T09:52:47.974Z,76.43
2023-03-03T09:55:39.325Z,77.97
2023-03-03T09:58:24.833Z,73.30
2023-03-03T10:01:15.800Z,66.15
2023-03-03T10:04:13.434Z,63.00
2023-03-03T10:06:49.585Z,65.72
2023-03-03T10:09:34.856Z,61.75
2023-03-03T10:12:25.072Z,54.42
2023-03-03T10:14:51.802Z,56.67
2023-03-03T10:17:46.521Z,66.38
2023-03-03T10:20:25.532Z,57.53
2023-03-03T10:23:15.190Z,61.45
2023-03-03T10:26:03.848Z,62.35
2023-03-03T10:28:49.017Z,58.33
2023-03-03T10:31:53.406Z,58.03
2023-03-03T10:34:32.168Z,56.38
2023-03-03T10:37:46.330Z,56.47
2023-03-03T10:40:38.552Z,57.75
2023-03-03T10:43:05.224Z,66.55
2023-03-03T10:46:07.054Z,62.72
2023-03-03T10:49:02.362Z,63.65
2023-03-03T10:51:55.327Z,75.43
2023-03-03T10:54:49.751Z,61.20
2023-03-03T10:57:41.544Z,63.55
2023-03-03T11:00:16.548Z,56.50
2023-03-03T11:03:20.963Z,56.30
2023-03-03T11:05:50.805Z,57.08
2023-03-03T11:08:24.414Z,61.33
2023-03-03T11:11:23.153Z,51.33
2023-03-03T11:14:13.456Z,52.70
2023-03-03T11:16:52.682Z,56.85
2023-03-03T11:19:40.272Z,51.08
2023-03-03T11:22:33.548Z,56.53
2023-03-03T11:25:09.131Z,50.85
2023-03-03T11:27:53.889Z,49.30
2023-03-03T11:30:41.891Z,45.85
2023-03-03T11:33:45.096Z,54.28
2023-03-03T11:36:27.997Z,42.30
2023-03-03T11:39:05.421Z,47.90
2023-03-03T11:41:37.661Z,43.85
2023-03-03T11:44:17.202Z,39.83
2023-03-03T11:47:00.547Z,40.72
2023-03-03T11:49:37.498Z,44.47
2023-03-03T11:52:26.204Z,38.35
2023-03-03T11:55:04.921Z,42.15
2023-03-03T11:57:52.855Z,44.70
2023-03-03T12:00:28.880Z,44.20
2023-03-03T12:02:58.379Z,39.65
2023-03-03T12:05:45.756Z,40.58
2023-03-03T12:08:21.409Z,40.60
2023-03-03T12:11:07.654Z,38.28
2023-03-03T12:13:34.890Z,42.65
2023-03-03T12:16:12.840Z,36.55
2023-03-03T12:18:49.083Z,39.45
2023-03-03T12:21:18.571Z,38.40
2023-03-03T12:24:16.910Z,34.22
2023-03-03T12:27:10.532Z,31.73
2023-03-03T12:29:49.532Z,33.05
2023-03-03T12:32:32.553Z,32.92
2023-03-03T12:35:44.006Z,34.85
2023-03-03T12:38:40.600Z,32.00
2023-03-03T12:41:30.101Z,31.52
2023-03-03T12:44:13.249Z,31.80
2023-03-03T12:46:52.633Z,30.05
2023-03-03T12:49:20.134Z,29.45
2023-03-03T12:52:16.156Z,32.90
2023-03-03T12:55:19.848Z,33.85
2023-03-03T12:58:02.823Z,26.60
2023-03-03T13:00:51.905Z,29.50
2023-03-03T13:03:55.765Z,28.55
2023-03-03T13:06:34.881Z,34.05
2023-03-03T13:09:34.441Z,26.55
2023-03-03T13:12:41.864Z,28.05
2023-03-03T13:15:32.789Z,28.23
2023-03-03T13:18:29.719Z,29.13
2023-03-03T13:21:10.796Z,28.02
2023-03-03T13:23:56.412Z,25.40
2023-03-03T13:26:36.254Z,25.73
2023-03-03T13:29:15.915Z,25.05
2023-03-03T13:31:49.531Z,23.65
2023-03-03T13:34:56.793Z,25.77
2023-03-03T13:37:30.789Z,25.30
2023-03-03T13:40:08.542Z,28.58
2023-03-03T13:42:43.828Z,26.90
2023-03-03T13:45:27.613Z,21.30
2023-03-03T13:48:18.342Z,24.67
2023-03-03T13:50:56.484Z,23.08
2023-03-03T13:53:23.171Z,24.80
2023-03-03T13:56:05.478Z,22.80
2023-03-03T14:01:14.683Z,23.08
2023-03-03T14:03:50.696Z,22.10
2023-03-03T14:06:22.656Z,25.33
2023-03-03T14:08:58.372Z,26.63
2023-03-03T14:11:45.928Z,24.70
2023-03-03T14:14:28.647Z,19.42
2023-03-03T14:17:08.447Z,26.23
2023-03-03T14:19:40.037Z,25.60
2023-03-03T14:22:25.346Z,28.77
2023-03-03T14:25:02.594Z,31.08
2023-03-03T14:27:53.198Z,26.45
2023-03-03T14:30:23.014Z,27.48
2023-03-03T14:33:10.158Z,35.33
2023-03-03T14:35:42.214Z,32.05
2023-03-03T14:40:42.782Z,29.90
2023-03-03T14:43:36.592Z,30.63
2023-03-03T14:46:29.167Z,31.60
2023-03-03T14:48:58.897Z,31.92
2023-03-03T14:51:44.289Z,25.17
2023-03-03T14:54:22.315Z,28.92
2023-03-03T14:57:15.197Z,35.30
2023-03-03T14:59:55.441Z,30.85
2023-03-03T15:02:30.526Z,31.85
2023-03-03T15:05:13.295Z,30.92
2023-03-03T15:07:40.411Z,32.75
2023-03-03T15:10:07.898Z,29.45
2023-03-03T15:12:40.866Z,41.17
2023-03-03T15:15:11.631Z,30.48
2023-03-03T15:17:54.192Z,28.63
2023-03-03T15:20:46.053Z,34.10
2023-03-03T15:23:42.000Z,32.38
2023-03-03T15:26:27.147Z,32.42
2023-03-03T15:29:24.860Z,34.90
2023-03-03T15:32:18.303Z,31.48
2023-03-03T15:34:51.806Z,31.83
2023-03-03T15:37:27.210Z,37.63
2023-03-03T15:40:12.453Z,33.17
2023-03-03T15:42:52.785Z,36.63
2023-03-03T15:45:50.053Z,43.85
2023-03-03T15:48:28.808Z,38.90
2023-03-03T15:51:13.341Z,32.30
2023-03-03T15:54:17.698Z,39.40
2023-03-03T15:56:51.324Z,32.40
2023-03-03T15:59:26.980Z,31.27
2023-03-03T16:02:00.352Z,37.85
2023-03-03T16:04:33.111Z,37.55
2023-03-03T16:07:02.734Z,39.33
2023-03-03T16:09:41.442Z,41.65
2023-03-03T16:12:34.218Z,38.08
2023-03-03T16:15:06.947Z,32.25
2023-03-03T16:17:47.908Z,40.83
2023-03-03T16:20:23.048Z,35.10
2023-03-03T16:23:11.839Z,38.35
2023-03-03T16:26:04.531Z,31.75
2023-03-03T16:28:36.739Z,35.33
2023-03-03T16:31:21.545Z,36.47
2023-03-03T16:34:14.527Z,35.38
2023-03-03T16:36:50.151Z,37.08
2023-03-03T16:39:39.823Z,39.15
2023-03-03T16:42:26.428Z,35.55
2023-03-03T16:44:55.929Z,42.33
2023-03-03T16:47:34.931Z,34.28
2023-03-03T16:50:29.593Z,37.38
2023-03-03T16:53:42.630Z,36.55
2023-03-03T16:56:20.024Z,41.67
2023-03-03T16:59:18.274Z,39.28
2023-03-03T17:02:03.969Z,33.10
2023-03-03T17:04:59.117Z,36.03
2023-03-03T17:07:36.010Z,42.95
2023-03-03T17:10:26.396Z,33.85
2023-03-03T17:13:07.099Z,38.38
2023-03-03T17:15:47.407Z,36.42
2023-03-03T17:18:24.881Z,31.27
2023-03-03T17:21:02.268Z,37.13
2023-03-03T17:23:54.656Z,33.80
2023-03-03T17:26:52.670Z,35.53
2023-03-03T17:29:31.020Z,39.58
2023-03-03T17:32:31.849Z,41.08
2023-03-03T17:35:35.933Z,37.80
2023-03-03T17:38:27.572Z,32.83
2023-03-03T17:41:23.964Z,31.92
2023-03-03T17:44:12.198Z,37.45
2023-03-03T17:46:51.512Z,37.40
2023-03-03T17:49:45.911Z,43.10
2023-03-03T17:52:33.960Z,45.72
2023-03-03T17:55:21.830Z,37.40
2023-03-03T17:58:05.849Z,32.63
2023-03-03T18:00:38.420Z,40.58
2023-03-03T18:03:15.879Z,37.20
2023-03-03T18:06:06.336Z,38.13
2023-03-03T18:09:14.070Z,41.35
2023-03-03T18:12:04.825Z,40.58
2023-03-03T18:14:55.153Z,33.55
2023-03-03T18:17:35.840Z,37.22
2023-03-03T18:20:40.191Z,41.55
2023-03-03T18:23:43.641Z,38.30
2023-03-03T18:26:29.680Z,38.55
2023-03-03T18:29:16.592Z,43.47
2023-03-03T18:31:52.187Z,44.80
2023-03-03T18:34:18.788Z,41.78
2023-03-03T18:36:55.725Z,46.03
2023-03-03T18:39:46.385Z,44.40
2023-03-03T18:42:16.093Z,63.45
2023-03-03T18:44:44.365Z,68.53
2023-03-03T18:47:11.901Z,120.43
2023-03-03T18:50:01.485Z,48.58
2023-03-03T18:52:33.715Z,49.53
2023-03-03T18:55:09.752Z,46.75
2023-03-03T18:57:38.268Z,59.65
2023-03-03T19:00:28.555Z,55.60
2023-03-03T19:02:58.826Z,59.40
2023-03-03T19:05:33.928Z,52.80
2023-03-03T19:08:23.436Z,55.35
2023-03-03T19:10:58.010Z,50.30
2023-03-03T19:13:41.212Z,57.45
2023-03-03T19:16:30.463Z,50.50
2023-03-03T19:19:04.441Z,51.53
2023-03-03T19:21:36.435Z,44.42
2023-03-03T19:24:05.819Z,56.25
2023-03-03T19:26:43.190Z,46.63
2023-03-03T19:29:18.782Z,48.40
2023-03-03T19:32:26.275Z,50.58
2023-03-03T19:35:03.371Z,44.33
2023-03-03T19:37:54.641Z,42.17
2023-03-03T19:40:43.208Z,49.85
2023-03-03T19:43:37.169Z,55.70
2023-03-03T19:46:30.400Z,43.53
2023-03-03T19:49:09.113Z,52.45
2023-03-03T19:51:45.157Z,52.75
2023-03-03T19:54:44.811Z,51.00
2023-03-03T19:57:26.308Z,52.20
2023-03-03T20:00:05.586Z,50.30
2023-03-03T20:03:23.818Z,52.90
2023-03-03T20:06:29.952Z,47.78
2023-03-03T20:09:22.752Z,54.67
2023-03-03T20:12:08.336Z,52.47
2023-03-03T20:14:46.065Z,47.90
2023-03-03T20:17:21.354Z,44.53
2023-03-03T20:20:00.357Z,41.40
2023-03-03T20:22:56.644Z,47.15
2023-03-03T20:25:55.342Z,38.17
2023-03-03T20:28:48.335Z,36.78
2023-03-03T20:31:21.016Z,36.72
2023-03-03T20:34:00.954Z,38.92
2023-03-03T20:36:55.123Z,27.05
2023-03-03T20:39:43.312Z,26.42
2023-03-03T20:42:33.096Z,25.45
2023-03-03T20:45:10.774Z,22.27
2023-03-03T20:47:54.540Z,35.13
2023-03-03T20:50:46.093Z,23.85
2023-03-03T20:53:36.259Z,22.30
2023-03-03T20:56:25.066Z,19.17
2023-03-03T20:59:17.408Z,23.30
2023-03-03T21:02:01.573Z,19.65
2023-03-03T21:04:33.644Z,22.13
2023-03-03T21:09:38.797Z,17.27
2023-03-03T21:12:31.389Z,21.20
2023-03-03T21:15:04.012Z,14.05
2023-03-03T21:17:31.669Z,7.72
2023-03-03T21:20:18.345Z,5.82
2023-03-03T21:22:45.539Z,6.07
2023-03-03T21:25:33.015Z,7.25
2023-03-03T21:28:17.895Z,6.93
2023-03-03T21:31:04.902Z,8.98
2023-03-03T21:33:57.024Z,10.85
2023-03-03T21:36:23.800Z,5.72
2023-03-03T21:38:52.953Z,17.10
2023-03-03T21:41:20.953Z,11.57
2023-03-03T21:43:50.176Z,17.77
2023-03-03T21:46:23.117Z,13.85
2023-03-03T21:48:51.444Z,12.18
2023-03-03T21:51:20.259Z,19.20
2023-03-03T21:53:47.662Z,8.30
2023-03-03T21:56:14.478Z,8.73
2023-03-03T21:58:41.949Z,11.48
2023-03-03T22:01:09.251Z,9.35
2023-03-03T22:03:36.993Z,11.45
2023-03-03T22:06:03.912Z,10.18
2023-03-03T22:08:30.837Z,15.52
2023-03-03T22:10:57.517Z,13.02
2023-03-03T22:13:26.137Z,15.27
2023-03-03T22:15:53.733Z,12.07
2023-03-03T22:18:21.575Z,12.10
2023-03-03T22:20:48.925Z,9.73
2023-03-03T22:23:16.293Z,17.45
2023-03-03T22:25:43.092Z,17.25
2023-03-03T22:28:09.769Z,19.92
2023-03-03T22:30:36.778Z,12.57
2023-03-03T22:33:03.984Z,12.82
2023-03-03T22:35:31.049Z,9.00
2023-03-03T22:37:57.995Z,8.55
2023-03-03T22:40:24.696Z,11.20
2023-03-03T22:42:51.745Z,18.70
2023-03-03T22:45:18.656Z,13.52
2023-03-03T22:47:45.539Z,7.55
2023-03-03T22:50:12.989Z,6.55
2023-03-03T22:52:39.754Z,10.68
2023-03-03T22:55:07.134Z,15.70
2023-03-03T22:57:34.358Z,11.30
2023-03-03T23:00:02.504Z,13.43
2023-03-03T23:02:29.852Z,10.52
2023-03-03T23:05:01.657Z,14.27
2023-03-03T23:07:29.249Z,21.13
2023-03-03T23:09:56.282Z,20.25
2023-03-03T23:12:23.770Z,11.25
2023-03-03T23:14:50.489Z,26.23
2023-03-03T23:17:17.433Z,15.25
2023-03-03T23:19:46.265Z,24.80
2023-03-03T23:22:13.656Z,13.20
2023-03-03T23:24:41.292Z,18.38
2023-03-03T23:27:11.722Z,16.13
2023-03-03T23:29:39.021Z,16.75
2023-03-03T23:32:06.101Z,12.82
2023-03-03T23:34:32.910Z,16.98
2023-03-03T23:36:59.585Z,14.40
2023-03-03T23:39:26.262Z,9.32
2023-03-03T23:41:52.973Z,17.38
2023-03-03T23:44:19.708Z,19.58
2023-03-03T23:46:46.436Z,15.77
2023-03-03T23:49:13.207Z,10.43
2023-03-03T23:51:39.884Z,18.40
2023-03-03T23:54:06.664Z,18.13
2023-03-03T23:56:33.427Z,21.83
2023-03-03T23:59:00.158Z,13.88
